sensor_id;sensor_type;location;lat;lon;timestamp;temperature;humidity
69189;DHT22;56302;52.322;5.926;2023-04-24T00:01:37;9.80;94.80
69189;DHT22;56302;52.322;5.926;2023-04-24T00:04:05;9.80;94.60
69189;DHT22;56302;52.322;5.926;2023-04-24T00:06:32;9.70;94.70
69189;DHT22;56302;52.322;5.926;2023-04-24T00:09:03;9.70;94.80
69189;DHT22;56302;52.322;5.926;2023-04-24T00:11:29;9.60;94.50
69189;DHT22;56302;52.322;5.926;2023-04-24T00:13:55;9.50;94.80
69189;DHT22;56302;52.322;5.926;2023-04-24T00:16:22;9.50;94.90
69189;DHT22;56302;52.322;5.926;2023-04-24T00:18:47;9.50;94.80
69189;DHT22;56302;52.322;5.926;2023-04-24T00:21:14;9.50;95.00
69189;DHT22;56302;52.322;5.926;2023-04-24T00:23:40;9.40;94.70
69189;DHT22;56302;52.322;5.926;2023-04-24T00:26:05;9.40;94.90
69189;DHT22;56302;52.322;5.926;2023-04-24T00:28:31;9.40;94.80
69189;DHT22;56302;52.322;5.926;2023-04-24T00:30:57;9.30;94.80
69189;DHT22;56302;52.322;5.926;2023-04-24T00:33:22;9.20;95.50
69189;DHT22;56302;52.322;5.926;2023-04-24T00:35:48;9.20;95.70
69189;DHT22;56302;52.322;5.926;2023-04-24T00:38:13;9.20;95.70
69189;DHT22;56302;52.322;5.926;2023-04-24T00:40:39;9.20;95.50
69189;DHT22;56302;52.322;5.926;2023-04-24T00:43:05;9.20;95.10
69189;DHT22;56302;52.322;5.926;2023-04-24T00:45:30;9.10;95.10
69189;DHT22;56302;52.322;5.926;2023-04-24T00:47:56;9.10;95.20
69189;DHT22;56302;52.322;5.926;2023-04-24T00:50:23;9.10;95.40
69189;DHT22;56302;52.322;5.926;2023-04-24T00:52:49;9.10;95.50
69189;DHT22;56302;52.322;5.926;2023-04-24T00:55:16;9.10;95.50
69189;DHT22;56302;52.322;5.926;2023-04-24T00:57:42;9.10;95.20
69189;DHT22;56302;52.322;5.926;2023-04-24T01:00:08;9.10;95.20
69189;DHT22;56302;52.322;5.926;2023-04-24T01:02:41;9.10;95.10
69189;DHT22;56302;52.322;5.926;2023-04-24T01:05:11;9.10;95.00
69189;DHT22;56302;52.322;5.926;2023-04-24T01:07:37;9.00;95.20
69189;DHT22;56302;52.322;5.926;2023-04-24T01:10:03;9.00;95.60
69189;DHT22;56302;52.322;5.926;2023-04-24T01:12:29;9.00;95.50
69189;DHT22;56302;52.322;5.926;2023-04-24T01:14:55;9.00;95.50
69189;DHT22;56302;52.322;5.926;2023-04-24T01:17:22;9.00;95.30
69189;DHT22;56302;52.322;5.926;2023-04-24T01:19:47;9.00;95.50
69189;DHT22;56302;52.322;5.926;2023-04-24T01:22:14;8.90;95.60
69189;DHT22;56302;52.322;5.926;2023-04-24T01:24:40;9.00;95.60
69189;DHT22;56302;52.322;5.926;2023-04-24T01:27:06;8.90;95.50
69189;DHT22;56302;52.322;5.926;2023-04-24T01:29:32;8.90;95.50
69189;DHT22;56302;52.322;5.926;2023-04-24T01:31:58;8.90;95.50
69189;DHT22;56302;52.322;5.926;2023-04-24T01:34:24;8.90;95.60
69189;DHT22;56302;52.322;5.926;2023-04-24T01:36:49;8.90;95.50
69189;DHT22;56302;52.322;5.926;2023-04-24T01:39:15;8.80;95.60
69189;DHT22;56302;52.322;5.926;2023-04-24T01:41:42;8.80;95.60
69189;DHT22;56302;52.322;5.926;2023-04-24T01:44:07;8.80;95.60
69189;DHT22;56302;52.322;5.926;2023-04-24T01:46:33;8.80;95.50
69189;DHT22;56302;52.322;5.926;2023-04-24T01:49:01;8.80;95.60
69189;DHT22;56302;52.322;5.926;2023-04-24T01:51:27;8.80;95.50
69189;DHT22;56302;52.322;5.926;2023-04-24T01:53:53;8.70;95.40
69189;DHT22;56302;52.322;5.926;2023-04-24T01:56:20;8.70;95.60
69189;DHT22;56302;52.322;5.926;2023-04-24T01:58:47;8.70;95.70
69189;DHT22;56302;52.322;5.926;2023-04-24T02:01:19;8.70;95.80
69189;DHT22;56302;52.322;5.926;2023-04-24T02:03:45;8.70;95.90
69189;DHT22;56302;52.322;5.926;2023-04-24T02:06:11;8.70;95.80
69189;DHT22;56302;52.322;5.926;2023-04-24T02:08:36;8.80;95.80
69189;DHT22;56302;52.322;5.926;2023-04-24T02:11:02;8.80;95.70
69189;DHT22;56302;52.322;5.926;2023-04-24T02:13:28;8.80;95.70
69189;DHT22;56302;52.322;5.926;2023-04-24T02:15:53;8.80;96.00
69189;DHT22;56302;52.322;5.926;2023-04-24T02:18:19;8.80;96.10
69189;DHT22;56302;52.322;5.926;2023-04-24T02:20:45;8.80;96.30
69189;DHT22;56302;52.322;5.926;2023-04-24T02:23:10;8.80;96.30
69189;DHT22;56302;52.322;5.926;2023-04-24T02:25:36;8.80;96.30
69189;DHT22;56302;52.322;5.926;2023-04-24T02:28:02;8.80;96.30
69189;DHT22;56302;52.322;5.926;2023-04-24T02:30:28;8.80;96.40
69189;DHT22;56302;52.322;5.926;2023-04-24T02:32:53;8.80;96.40
69189;DHT22;56302;52.322;5.926;2023-04-24T02:35:19;8.80;96.40
69189;DHT22;56302;52.322;5.926;2023-04-24T02:37:45;8.70;96.60
69189;DHT22;56302;52.322;5.926;2023-04-24T02:40:10;8.70;96.60
69189;DHT22;56302;52.322;5.926;2023-04-24T02:42:36;8.80;96.50
69189;DHT22;56302;52.322;5.926;2023-04-24T02:45:02;8.80;96.40
69189;DHT22;56302;52.322;5.926;2023-04-24T02:47:27;8.70;96.40
69189;DHT22;56302;52.322;5.926;2023-04-24T02:49:53;8.80;96.50
69189;DHT22;56302;52.322;5.926;2023-04-24T02:52:18;8.80;96.40
69189;DHT22;56302;52.322;5.926;2023-04-24T02:54:44;8.70;96.40
69189;DHT22;56302;52.322;5.926;2023-04-24T02:57:09;8.70;96.50
69189;DHT22;56302;52.322;5.926;2023-04-24T02:59:35;8.70;96.50
69189;DHT22;56302;52.322;5.926;2023-04-24T03:02:00;8.70;96.50
69189;DHT22;56302;52.322;5.926;2023-04-24T03:04:26;8.70;96.50
69189;DHT22;56302;52.322;5.926;2023-04-24T03:06:52;8.70;96.60
69189;DHT22;56302;52.322;5.926;2023-04-24T03:09:23;8.70;96.60
69189;DHT22;56302;52.322;5.926;2023-04-24T03:11:49;8.70;96.70
69189;DHT22;56302;52.322;5.926;2023-04-24T03:14:15;8.70;96.70
69189;DHT22;56302;52.322;5.926;2023-04-24T03:16:40;8.70;96.70
69189;DHT22;56302;52.322;5.926;2023-04-24T03:19:06;8.70;96.70
69189;DHT22;56302;52.322;5.926;2023-04-24T03:21:32;8.70;96.70
69189;DHT22;56302;52.322;5.926;2023-04-24T03:23:57;8.70;96.80
69189;DHT22;56302;52.322;5.926;2023-04-24T03:26:23;8.70;96.80
69189;DHT22;56302;52.322;5.926;2023-04-24T03:28:48;8.70;96.80
69189;DHT22;56302;52.322;5.926;2023-04-24T03:31:14;8.70;96.80
69189;DHT22;56302;52.322;5.926;2023-04-24T03:33:40;8.70;96.70
69189;DHT22;56302;52.322;5.926;2023-04-24T03:36:06;8.70;96.70
69189;DHT22;56302;52.322;5.926;2023-04-24T03:38:32;8.70;96.60
69189;DHT22;56302;52.322;5.926;2023-04-24T03:40:57;8.70;96.50
69189;DHT22;56302;52.322;5.926;2023-04-24T03:43:23;8.70;96.40
69189;DHT22;56302;52.322;5.926;2023-04-24T03:45:48;8.70;96.50
69189;DHT22;56302;52.322;5.926;2023-04-24T03:48:14;8.70;96.50
69189;DHT22;56302;52.322;5.926;2023-04-24T03:50:39;8.70;96.50
69189;DHT22;56302;52.322;5.926;2023-04-24T03:53:05;8.70;96.40
69189;DHT22;56302;52.322;5.926;2023-04-24T03:55:30;8.70;96.50
69189;DHT22;56302;52.322;5.926;2023-04-24T03:57:56;8.70;96.40
69189;DHT22;56302;52.322;5.926;2023-04-24T04:00:21;8.70;96.50
69189;DHT22;56302;52.322;5.926;2023-04-24T04:02:47;8.70;96.50
69189;DHT22;56302;52.322;5.926;2023-04-24T04:05:12;8.70;96.40
69189;DHT22;56302;52.322;5.926;2023-04-24T04:07:38;8.70;96.50
69189;DHT22;56302;52.322;5.926;2023-04-24T04:10:04;8.70;96.60
69189;DHT22;56302;52.322;5.926;2023-04-24T04:12:30;8.60;96.70
69189;DHT22;56302;52.322;5.926;2023-04-24T04:14:55;8.60;96.70
69189;DHT22;56302;52.322;5.926;2023-04-24T04:17:21;8.60;96.60
69189;DHT22;56302;52.322;5.926;2023-04-24T04:19:46;8.60;96.70
69189;DHT22;56302;52.322;5.926;2023-04-24T04:22:12;8.60;96.70
69189;DHT22;56302;52.322;5.926;2023-04-24T04:24:37;8.60;96.70
69189;DHT22;56302;52.322;5.926;2023-04-24T04:27:06;8.60;96.70
69189;DHT22;56302;52.322;5.926;2023-04-24T04:29:32;8.60;96.70
69189;DHT22;56302;52.322;5.926;2023-04-24T04:31:58;8.60;96.80
69189;DHT22;56302;52.322;5.926;2023-04-24T04:34:23;8.60;96.80
69189;DHT22;56302;52.322;5.926;2023-04-24T04:36:49;8.60;96.80
69189;DHT22;56302;52.322;5.926;2023-04-24T04:39:16;8.60;96.80
69189;DHT22;56302;52.322;5.926;2023-04-24T04:41:42;8.60;96.80
69189;DHT22;56302;52.322;5.926;2023-04-24T04:44:07;8.60;96.80
69189;DHT22;56302;52.322;5.926;2023-04-24T04:46:34;8.60;96.60
69189;DHT22;56302;52.322;5.926;2023-04-24T04:49:00;8.60;96.70
69189;DHT22;56302;52.322;5.926;2023-04-24T04:51:26;8.60;96.70
69189;DHT22;56302;52.322;5.926;2023-04-24T04:53:52;8.60;96.70
69189;DHT22;56302;52.322;5.926;2023-04-24T04:56:18;8.60;96.70
69189;DHT22;56302;52.322;5.926;2023-04-24T04:58:43;8.60;96.80
69189;DHT22;56302;52.322;5.926;2023-04-24T05:01:09;8.60;96.70
69189;DHT22;56302;52.322;5.926;2023-04-24T05:03:34;8.60;96.70
69189;DHT22;56302;52.322;5.926;2023-04-24T05:06:01;8.60;96.70
69189;DHT22;56302;52.322;5.926;2023-04-24T05:08:27;8.60;96.60
69189;DHT22;56302;52.322;5.926;2023-04-24T05:10:53;8.60;96.50
69189;DHT22;56302;52.322;5.926;2023-04-24T05:13:19;8.60;96.60
69189;DHT22;56302;52.322;5.926;2023-04-24T05:15:44;8.60;96.80
69189;DHT22;56302;52.322;5.926;2023-04-24T05:18:10;8.60;96.90
69189;DHT22;56302;52.322;5.926;2023-04-24T05:20:36;8.60;96.90
69189;DHT22;56302;52.322;5.926;2023-04-24T05:23:01;8.60;97.00
69189;DHT22;56302;52.322;5.926;2023-04-24T05:25:27;8.60;97.10
69189;DHT22;56302;52.322;5.926;2023-04-24T05:27:52;8.60;97.00
69189;DHT22;56302;52.322;5.926;2023-04-24T05:30:19;8.60;96.90
69189;DHT22;56302;52.322;5.926;2023-04-24T05:32:45;8.60;96.90
69189;DHT22;56302;52.322;5.926;2023-04-24T05:35:10;8.60;96.90
69189;DHT22;56302;52.322;5.926;2023-04-24T05:37:36;8.60;97.00
69189;DHT22;56302;52.322;5.926;2023-04-24T05:40:01;8.60;97.00
69189;DHT22;56302;52.322;5.926;2023-04-24T05:42:29;8.60;97.10
69189;DHT22;56302;52.322;5.926;2023-04-24T05:44:55;8.60;97.10
69189;DHT22;56302;52.322;5.926;2023-04-24T05:47:20;8.50;97.30
69189;DHT22;56302;52.322;5.926;2023-04-24T05:49:47;8.50;97.60
69189;DHT22;56302;52.322;5.926;2023-04-24T05:52:13;8.50;97.70
69189;DHT22;56302;52.322;5.926;2023-04-24T05:54:38;8.50;97.90
69189;DHT22;56302;52.322;5.926;2023-04-24T05:57:04;8.50;98.00
69189;DHT22;56302;52.322;5.926;2023-04-24T05:59:33;8.50;98.10
69189;DHT22;56302;52.322;5.926;2023-04-24T06:01:59;8.60;98.00
69189;DHT22;56302;52.322;5.926;2023-04-24T06:04:25;8.60;97.90
69189;DHT22;56302;52.322;5.926;2023-04-24T06:06:50;8.60;97.90
69189;DHT22;56302;52.322;5.926;2023-04-24T06:09:23;8.60;97.90
69189;DHT22;56302;52.322;5.926;2023-04-24T06:11:49;8.60;98.10
69189;DHT22;56302;52.322;5.926;2023-04-24T06:14:17;8.60;98.10
69189;DHT22;56302;52.322;5.926;2023-04-24T06:16:43;8.60;98.30
69189;DHT22;56302;52.322;5.926;2023-04-24T06:19:08;8.50;98.60
69189;DHT22;56302;52.322;5.926;2023-04-24T06:21:34;8.50;99.10
69189;DHT22;56302;52.322;5.926;2023-04-24T06:23:59;8.60;99.40
69189;DHT22;56302;52.322;5.926;2023-04-24T06:26:25;8.60;99.50
69189;DHT22;56302;52.322;5.926;2023-04-24T06:28:52;8.60;99.50
69189;DHT22;56302;52.322;5.926;2023-04-24T06:31:19;8.70;99.60
69189;DHT22;56302;52.322;5.926;2023-04-24T06:33:45;8.70;99.40
69189;DHT22;56302;52.322;5.926;2023-04-24T06:36:12;8.70;99.20
69189;DHT22;56302;52.322;5.926;2023-04-24T06:38:37;8.70;99.30
69189;DHT22;56302;52.322;5.926;2023-04-24T06:41:03;8.60;99.40
69189;DHT22;56302;52.322;5.926;2023-04-24T06:43:30;8.50;99.50
69189;DHT22;56302;52.322;5.926;2023-04-24T06:45:57;8.60;99.70
69189;DHT22;56302;52.322;5.926;2023-04-24T06:48:24;8.60;99.80
69189;DHT22;56302;52.322;5.926;2023-04-24T06:50:50;8.60;99.60
69189;DHT22;56302;52.322;5.926;2023-04-24T06:53:16;8.60;99.60
69189;DHT22;56302;52.322;5.926;2023-04-24T06:55:41;8.60;99.60
69189;DHT22;56302;52.322;5.926;2023-04-24T06:58:08;8.60;99.40
69189;DHT22;56302;52.322;5.926;2023-04-24T07:00:34;8.70;99.40
69189;DHT22;56302;52.322;5.926;2023-04-24T07:02:59;8.70;99.20
69189;DHT22;56302;52.322;5.926;2023-04-24T07:05:25;8.60;99.20
69189;DHT22;56302;52.322;5.926;2023-04-24T07:07:51;8.70;99.10
69189;DHT22;56302;52.322;5.926;2023-04-24T07:10:16;8.70;99.00
69189;DHT22;56302;52.322;5.926;2023-04-24T07:12:42;8.70;99.00
69189;DHT22;56302;52.322;5.926;2023-04-24T07:15:08;8.70;98.90
69189;DHT22;56302;52.322;5.926;2023-04-24T07:17:34;8.70;98.90
69189;DHT22;56302;52.322;5.926;2023-04-24T07:20:00;8.60;99.20
69189;DHT22;56302;52.322;5.926;2023-04-24T07:22:26;8.50;99.50
69189;DHT22;56302;52.322;5.926;2023-04-24T07:24:52;8.50;99.70
69189;DHT22;56302;52.322;5.926;2023-04-24T07:27:18;8.50;99.90
69189;DHT22;56302;52.322;5.926;2023-04-24T07:29:43;8.50;99.90
69189;DHT22;56302;52.322;5.926;2023-04-24T07:32:09;8.40;99.90
69189;DHT22;56302;52.322;5.926;2023-04-24T07:34:35;8.50;99.90
69189;DHT22;56302;52.322;5.926;2023-04-24T07:37:00;8.40;99.90
69189;DHT22;56302;52.322;5.926;2023-04-24T07:39:26;8.40;99.90
69189;DHT22;56302;52.322;5.926;2023-04-24T07:41:52;8.40;99.90
69189;DHT22;56302;52.322;5.926;2023-04-24T07:44:18;8.40;99.90
69189;DHT22;56302;52.322;5.926;2023-04-24T07:46:44;8.40;99.90
69189;DHT22;56302;52.322;5.926;2023-04-24T07:49:10;8.40;99.90
69189;DHT22;56302;52.322;5.926;2023-04-24T07:51:35;8.30;99.90
69189;DHT22;56302;52.322;5.926;2023-04-24T07:54:04;8.30;99.90
69189;DHT22;56302;52.322;5.926;2023-04-24T07:56:32;8.30;99.90
69189;DHT22;56302;52.322;5.926;2023-04-24T07:58:58;8.30;99.90
69189;DHT22;56302;52.322;5.926;2023-04-24T08:01:23;8.30;99.90
69189;DHT22;56302;52.322;5.926;2023-04-24T08:03:49;8.20;99.90
69189;DHT22;56302;52.322;5.926;2023-04-24T08:06:15;8.20;99.90
69189;DHT22;56302;52.322;5.926;2023-04-24T08:08:40;8.20;99.90
69189;DHT22;56302;52.322;5.926;2023-04-24T08:11:06;8.20;99.90
69189;DHT22;56302;52.322;5.926;2023-04-24T08:13:31;8.20;99.90
69189;DHT22;56302;52.322;5.926;2023-04-24T08:15:57;8.20;99.90
69189;DHT22;56302;52.322;5.926;2023-04-24T08:18:23;8.20;99.90
69189;DHT22;56302;52.322;5.926;2023-04-24T08:20:48;8.20;99.90
69189;DHT22;56302;52.322;5.926;2023-04-24T08:23:14;8.20;99.90
69189;DHT22;56302;52.322;5.926;2023-04-24T08:25:40;8.20;99.90
69189;DHT22;56302;52.322;5.926;2023-04-24T08:28:06;8.20;99.90
69189;DHT22;56302;52.322;5.926;2023-04-24T08:30:34;8.20;99.90
69189;DHT22;56302;52.322;5.926;2023-04-24T08:32:59;8.20;99.80
69189;DHT22;56302;52.322;5.926;2023-04-24T08:35:25;8.20;99.80
69189;DHT22;56302;52.322;5.926;2023-04-24T08:37:52;8.20;99.70
69189;DHT22;56302;52.322;5.926;2023-04-24T08:40:25;8.20;99.60
69189;DHT22;56302;52.322;5.926;2023-04-24T08:42:54;8.20;99.60
69189;DHT22;56302;52.322;5.926;2023-04-24T08:45:20;8.30;99.80
69189;DHT22;56302;52.322;5.926;2023-04-24T08:47:46;8.30;99.80
69189;DHT22;56302;52.322;5.926;2023-04-24T08:50:13;8.40;99.70
69189;DHT22;56302;52.322;5.926;2023-04-24T08:52:38;8.40;99.60
69189;DHT22;56302;52.322;5.926;2023-04-24T08:55:05;8.40;99.70
69189;DHT22;56302;52.322;5.926;2023-04-24T08:57:32;8.40;99.40
69189;DHT22;56302;52.322;5.926;2023-04-24T08:59:59;8.40;99.50
69189;DHT22;56302;52.322;5.926;2023-04-24T09:02:25;8.40;99.40
69189;DHT22;56302;52.322;5.926;2023-04-24T09:04:51;8.40;99.50
69189;DHT22;56302;52.322;5.926;2023-04-24T09:07:18;8.40;99.50
69189;DHT22;56302;52.322;5.926;2023-04-24T09:09:44;8.40;99.60
69189;DHT22;56302;52.322;5.926;2023-04-24T09:12:10;8.40;99.60
69189;DHT22;56302;52.322;5.926;2023-04-24T09:14:36;8.40;99.60
69189;DHT22;56302;52.322;5.926;2023-04-24T09:17:05;8.40;99.50
69189;DHT22;56302;52.322;5.926;2023-04-24T09:19:31;8.40;99.70
69189;DHT22;56302;52.322;5.926;2023-04-24T09:21:57;8.50;99.70
69189;DHT22;56302;52.322;5.926;2023-04-24T09:24:22;8.60;99.60
69189;DHT22;56302;52.322;5.926;2023-04-24T09:26:49;8.60;98.90
69189;DHT22;56302;52.322;5.926;2023-04-24T09:29:21;8.50;98.50
69189;DHT22;56302;52.322;5.926;2023-04-24T09:31:46;8.50;98.20
69189;DHT22;56302;52.322;5.926;2023-04-24T09:34:12;8.50;98.50
69189;DHT22;56302;52.322;5.926;2023-04-24T09:36:40;8.60;98.70
69189;DHT22;56302;52.322;5.926;2023-04-24T09:39:11;8.60;98.70
69189;DHT22;56302;52.322;5.926;2023-04-24T09:44:14;8.60;98.30
69189;DHT22;56302;52.322;5.926;2023-04-24T09:46:41;8.40;98.40
69189;DHT22;56302;52.322;5.926;2023-04-24T09:49:12;8.40;98.50
69189;DHT22;56302;52.322;5.926;2023-04-24T09:51:39;8.30;98.50
69189;DHT22;56302;52.322;5.926;2023-04-24T09:54:20;8.20;98.70
69189;DHT22;56302;52.322;5.926;2023-04-24T09:56:48;8.20;98.90
69189;DHT22;56302;52.322;5.926;2023-04-24T09:59:16;8.20;99.00
69189;DHT22;56302;52.322;5.926;2023-04-24T10:01:41;8.20;98.70
69189;DHT22;56302;52.322;5.926;2023-04-24T10:04:20;8.20;98.60
69189;DHT22;56302;52.322;5.926;2023-04-24T10:06:48;8.20;98.70
69189;DHT22;56302;52.322;5.926;2023-04-24T10:09:14;8.20;97.90
69189;DHT22;56302;52.322;5.926;2023-04-24T10:11:45;8.20;98.00
69189;DHT22;56302;52.322;5.926;2023-04-24T10:14:13;8.30;97.80
69189;DHT22;56302;52.322;5.926;2023-04-24T10:16:40;8.50;97.80
69189;DHT22;56302;52.322;5.926;2023-04-24T10:19:06;8.60;97.30
69189;DHT22;56302;52.322;5.926;2023-04-24T10:21:32;8.70;96.90
69189;DHT22;56302;52.322;5.926;2023-04-24T10:23:59;8.70;95.80
69189;DHT22;56302;52.322;5.926;2023-04-24T10:26:28;8.60;95.70
69189;DHT22;56302;52.322;5.926;2023-04-24T10:28:57;8.50;95.50
69189;DHT22;56302;52.322;5.926;2023-04-24T10:31:23;8.50;95.40
69189;DHT22;56302;52.322;5.926;2023-04-24T10:33:50;8.40;95.10
69189;DHT22;56302;52.322;5.926;2023-04-24T10:36:16;8.40;93.70
69189;DHT22;56302;52.322;5.926;2023-04-24T10:38:45;8.30;93.80
69189;DHT22;56302;52.322;5.926;2023-04-24T10:41:12;8.40;92.50
69189;DHT22;56302;52.322;5.926;2023-04-24T10:43:45;8.40;92.40
69189;DHT22;56302;52.322;5.926;2023-04-24T10:46:17;8.30;92.50
69189;DHT22;56302;52.322;5.926;2023-04-24T10:48:52;8.40;92.30
69189;DHT22;56302;52.322;5.926;2023-04-24T10:51:22;8.40;91.70
69189;DHT22;56302;52.322;5.926;2023-04-24T10:53:50;8.50;91.50
69189;DHT22;56302;52.322;5.926;2023-04-24T10:56:16;8.50;91.30
69189;DHT22;56302;52.322;5.926;2023-04-24T10:58:43;8.50;90.80
69189;DHT22;56302;52.322;5.926;2023-04-24T11:01:27;8.50;90.30
69189;DHT22;56302;52.322;5.926;2023-04-24T11:03:57;8.60;90.70
69189;DHT22;56302;52.322;5.926;2023-04-24T11:06:34;8.70;91.70
69189;DHT22;56302;52.322;5.926;2023-04-24T11:09:07;8.60;90.80
69189;DHT22;56302;52.322;5.926;2023-04-24T11:11:33;8.40;90.90
69189;DHT22;56302;52.322;5.926;2023-04-24T11:16:35;8.50;92.50
69189;DHT22;56302;52.322;5.926;2023-04-24T11:21:48;8.70;92.10
69189;DHT22;56302;52.322;5.926;2023-04-24T11:29:49;8.70;90.00
69189;DHT22;56302;52.322;5.926;2023-04-24T11:32:39;8.60;89.90
69189;DHT22;56302;52.322;5.926;2023-04-24T11:37:37;8.60;87.50
69189;DHT22;56302;52.322;5.926;2023-04-24T11:40:04;8.80;89.40
69189;DHT22;56302;52.322;5.926;2023-04-24T11:42:38;9.00;85.70
69189;DHT22;56302;52.322;5.926;2023-04-24T11:45:11;9.20;86.00
69189;DHT22;56302;52.322;5.926;2023-04-24T11:47:38;9.40;83.50
69189;DHT22;56302;52.322;5.926;2023-04-24T11:50:06;9.30;83.00
69189;DHT22;56302;52.322;5.926;2023-04-24T11:52:33;9.40;86.40
69189;DHT22;56302;52.322;5.926;2023-04-24T11:55:01;9.20;84.30
69189;DHT22;56302;52.322;5.926;2023-04-24T11:57:30;9.00;84.40
69189;DHT22;56302;52.322;5.926;2023-04-24T12:00:03;8.90;85.10
69189;DHT22;56302;52.322;5.926;2023-04-24T12:02:30;8.80;84.90
69189;DHT22;56302;52.322;5.926;2023-04-24T12:04:56;8.80;86.60
69189;DHT22;56302;52.322;5.926;2023-04-24T12:07:22;8.80;86.00
69189;DHT22;56302;52.322;5.926;2023-04-24T12:09:58;8.70;87.00
69189;DHT22;56302;52.322;5.926;2023-04-24T12:12:28;8.80;86.80
69189;DHT22;56302;52.322;5.926;2023-04-24T12:14:58;8.90;87.80
69189;DHT22;56302;52.322;5.926;2023-04-24T12:17:28;9.20;87.70
69189;DHT22;56302;52.322;5.926;2023-04-24T12:20:04;9.60;86.10
69189;DHT22;56302;52.322;5.926;2023-04-24T12:22:53;9.90;84.60
69189;DHT22;56302;52.322;5.926;2023-04-24T12:25:21;10.20;82.70
69189;DHT22;56302;52.322;5.926;2023-04-24T12:27:53;10.40;84.60
69189;DHT22;56302;52.322;5.926;2023-04-24T12:30:19;10.40;81.90
69189;DHT22;56302;52.322;5.926;2023-04-24T12:32:47;9.90;80.10
69189;DHT22;56302;52.322;5.926;2023-04-24T12:35:20;9.70;84.30
69189;DHT22;56302;52.322;5.926;2023-04-24T12:37:46;9.40;84.10
69189;DHT22;56302;52.322;5.926;2023-04-24T12:40:12;8.90;85.30
69189;DHT22;56302;52.322;5.926;2023-04-24T12:42:46;8.80;87.90
69189;DHT22;56302;52.322;5.926;2023-04-24T12:45:12;8.60;88.10
69189;DHT22;56302;52.322;5.926;2023-04-24T12:47:38;8.70;88.40
69189;DHT22;56302;52.322;5.926;2023-04-24T12:50:05;8.90;88.60
69189;DHT22;56302;52.322;5.926;2023-04-24T12:52:31;9.20;86.90
69189;DHT22;56302;52.322;5.926;2023-04-24T12:54:59;9.50;87.30
69189;DHT22;56302;52.322;5.926;2023-04-24T12:57:29;9.70;85.80
69189;DHT22;56302;52.322;5.926;2023-04-24T12:59:56;9.70;85.20
69189;DHT22;56302;52.322;5.926;2023-04-24T13:02:23;9.80;85.90
69189;DHT22;56302;52.322;5.926;2023-04-24T13:04:49;9.80;84.80
69189;DHT22;56302;52.322;5.926;2023-04-24T13:07:16;9.50;84.30
69189;DHT22;56302;52.322;5.926;2023-04-24T13:09:42;9.10;84.00
69189;DHT22;56302;52.322;5.926;2023-04-24T13:12:08;8.80;85.90
69189;DHT22;56302;52.322;5.926;2023-04-24T13:14:34;8.70;85.50
69189;DHT22;56302;52.322;5.926;2023-04-24T13:17:00;8.70;86.60
69189;DHT22;56302;52.322;5.926;2023-04-24T13:19:26;8.80;85.60
69189;DHT22;56302;52.322;5.926;2023-04-24T13:21:53;9.20;87.80
69189;DHT22;56302;52.322;5.926;2023-04-24T13:24:20;9.30;85.00
69189;DHT22;56302;52.322;5.926;2023-04-24T13:26:46;9.30;84.10
69189;DHT22;56302;52.322;5.926;2023-04-24T13:29:11;9.50;83.50
69189;DHT22;56302;52.322;5.926;2023-04-24T13:31:37;9.50;85.40
69189;DHT22;56302;52.322;5.926;2023-04-24T13:34:03;9.80;84.70
69189;DHT22;56302;52.322;5.926;2023-04-24T13:36:29;10.10;85.70
69189;DHT22;56302;52.322;5.926;2023-04-24T13:38:55;10.00;80.60
69189;DHT22;56302;52.322;5.926;2023-04-24T13:41:21;10.00;80.70
69189;DHT22;56302;52.322;5.926;2023-04-24T13:43:46;9.90;80.50
69189;DHT22;56302;52.322;5.926;2023-04-24T13:46:12;10.00;82.20
69189;DHT22;56302;52.322;5.926;2023-04-24T13:48:37;9.80;81.10
69189;DHT22;56302;52.322;5.926;2023-04-24T13:51:03;9.50;83.10
69189;DHT22;56302;52.322;5.926;2023-04-24T13:53:28;9.20;83.50
69189;DHT22;56302;52.322;5.926;2023-04-24T13:55:54;8.80;85.50
69189;DHT22;56302;52.322;5.926;2023-04-24T13:58:20;8.50;85.00
69189;DHT22;56302;52.322;5.926;2023-04-24T14:00:46;8.50;87.40
69189;DHT22;56302;52.322;5.926;2023-04-24T14:03:11;8.40;86.30
69189;DHT22;56302;52.322;5.926;2023-04-24T14:05:37;8.40;86.20
69189;DHT22;56302;52.322;5.926;2023-04-24T14:08:02;8.50;86.70
69189;DHT22;56302;52.322;5.926;2023-04-24T14:10:28;8.60;86.40
69189;DHT22;56302;52.322;5.926;2023-04-24T14:12:53;8.80;86.00
69189;DHT22;56302;52.322;5.926;2023-04-24T14:15:19;8.90;84.50
69189;DHT22;56302;52.322;5.926;2023-04-24T14:17:45;8.90;84.00
69189;DHT22;56302;52.322;5.926;2023-04-24T14:20:12;9.00;82.70
69189;DHT22;56302;52.322;5.926;2023-04-24T14:22:38;9.10;83.10
69189;DHT22;56302;52.322;5.926;2023-04-24T14:25:05;9.10;82.50
69189;DHT22;56302;52.322;5.926;2023-04-24T14:27:32;9.10;81.80
69189;DHT22;56302;52.322;5.926;2023-04-24T14:29:57;9.20;83.10
69189;DHT22;56302;52.322;5.926;2023-04-24T14:32:23;9.30;81.60
69189;DHT22;56302;52.322;5.926;2023-04-24T14:34:48;9.40;80.20
69189;DHT22;56302;52.322;5.926;2023-04-24T14:37:14;9.40;79.10
69189;DHT22;56302;52.322;5.926;2023-04-24T14:39:40;9.40;80.20
69189;DHT22;56302;52.322;5.926;2023-04-24T14:42:06;9.50;80.90
69189;DHT22;56302;52.322;5.926;2023-04-24T14:44:31;9.50;78.00
69189;DHT22;56302;52.322;5.926;2023-04-24T14:46:58;9.40;78.80
69189;DHT22;56302;52.322;5.926;2023-04-24T14:49:24;9.50;80.40
69189;DHT22;56302;52.322;5.926;2023-04-24T14:51:49;9.70;80.00
69189;DHT22;56302;52.322;5.926;2023-04-24T14:54:15;10.10;82.70
69189;DHT22;56302;52.322;5.926;2023-04-24T14:56:40;10.30;79.50
69189;DHT22;56302;52.322;5.926;2023-04-24T14:59:07;10.40;75.50
69189;DHT22;56302;52.322;5.926;2023-04-24T15:01:33;10.40;75.70
69189;DHT22;56302;52.322;5.926;2023-04-24T15:03:59;10.00;73.00
69189;DHT22;56302;52.322;5.926;2023-04-24T15:06:25;9.80;74.10
69189;DHT22;56302;52.322;5.926;2023-04-24T15:08:50;9.60;74.90
69189;DHT22;56302;52.322;5.926;2023-04-24T15:11:16;9.50;74.00
69189;DHT22;56302;52.322;5.926;2023-04-24T15:13:41;9.50;77.50
69189;DHT22;56302;52.322;5.926;2023-04-24T15:16:07;9.50;75.90
69189;DHT22;56302;52.322;5.926;2023-04-24T15:18:33;9.50;75.20
69189;DHT22;56302;52.322;5.926;2023-04-24T15:20:58;9.50;76.30
69189;DHT22;56302;52.322;5.926;2023-04-24T15:23:24;9.50;76.70
69189;DHT22;56302;52.322;5.926;2023-04-24T15:25:49;9.40;74.40
69189;DHT22;56302;52.322;5.926;2023-04-24T15:28:15;9.50;72.20
69189;DHT22;56302;52.322;5.926;2023-04-24T15:30:41;9.30;72.20
69189;DHT22;56302;52.322;5.926;2023-04-24T15:33:07;9.10;72.90
69189;DHT22;56302;52.322;5.926;2023-04-24T15:35:33;9.10;73.80
69189;DHT22;56302;52.322;5.926;2023-04-24T15:37:58;9.10;74.40
69189;DHT22;56302;52.322;5.926;2023-04-24T15:40:24;9.20;74.20
69189;DHT22;56302;52.322;5.926;2023-04-24T15:42:50;9.20;73.60
69189;DHT22;56302;52.322;5.926;2023-04-24T15:45:15;9.20;73.40
69189;DHT22;56302;52.322;5.926;2023-04-24T15:47:41;9.10;73.00
69189;DHT22;56302;52.322;5.926;2023-04-24T15:50:07;9.20;74.00
69189;DHT22;56302;52.322;5.926;2023-04-24T15:52:34;9.40;74.70
69189;DHT22;56302;52.322;5.926;2023-04-24T15:54:59;9.50;74.10
69189;DHT22;56302;52.322;5.926;2023-04-24T15:57:25;9.40;73.30